EBBR

Brussels Airport

Brussels, Belgium
TAF EBBR 191120Z 1912/2018 19010KT 9999 SCT018 PROB40 TEMPO 1912/1915 20015G26KT 4500 SHRA BKN013CB PROB40 TEMPO 2001/2018 20015G28KT 4500 SHRA BKN012CB
Issued Valid From Valid To
Dec-19 @ 11:20 UTC
(3 hours ago)
Dec-19 @ 12:00 UTC
(2 hours ago)
Dec-20 @ 18:00 UTC
(-1 days ago)
Dec-19 @ 12:00 to Dec-20 @ 18:00
TAF EBBR 191120Z 1912/2018 19010KT 9999 SCT018
Wind Visibility Clouds
190° at 10 knots 10,000+ meters
  • Scattered at 1,800' AGL
Temporary  (Probability 40%) Dec-19 @ 12:00 to Dec-19 @ 15:00
PROB40 TEMPO 1912/1915 20015G26KT 4500 SHRA BKN013CB
Wind Visibility Clouds Conditions
200° at 15 knots
 Gusting to 26 knots
4,506 meters
  • Broken at 1,300' AGL
  • Rain
Temporary  (Probability 40%) Dec-20 @ 01:00 to Dec-20 @ 18:00
PROB40 TEMPO 2001/2018 20015G28KT 4500 SHRA BKN012CB
Wind Visibility Clouds Conditions
200° at 15 knots
 Gusting to 28 knots
4,506 meters
  • Broken at 1,200' AGL
  • Rain
TAF EBBR 191120Z 1912/2018 19010KT 9999 SCT018 PROB40 TEMPO 1912/1915 20015G26KT 4500 SHRA BKN013CB PROB40 TEMPO 2001/2018 20015G28KT 4500 SHRA BKN012CB
Issued Dec-19 @ 11:20 UTC
(3 hours ago)
Valid From Dec-19 @ 12:00 UTC
(2 hours ago)
Valid To Dec-20 @ 18:00 UTC
(-1 days ago)
Dec-19 @ 12:00 - Dec-20 @ 18:00
Wind Visibility
190° at 10 knots 10,000+ meters
Clouds
  • Scattered at 1,800' AGL
Probability 40% Temporary Dec-19 @ 12:00 - Dec-19 @ 15:00
Wind Visibility
200° at 15 knots
 Gusting to 26 knots
4,506 meters
Clouds
  • Broken at 1,300' AGL
Conditions
  • Rain
Probability 40% Temporary Dec-20 @ 01:00 - Dec-20 @ 18:00
Wind Visibility
200° at 15 knots
 Gusting to 28 knots
4,506 meters
Clouds
  • Broken at 1,200' AGL
Conditions
  • Rain